createdAt,value
2019-03-08T05:36:24.113Z,1002.39
2019-03-08T05:37:24.086Z,1002.41
2019-03-08T05:38:24.052Z,1002.37
2019-03-08T05:39:24.057Z,1002.38
2019-03-08T05:40:24.034Z,1002.43
2019-03-08T05:41:24.019Z,1002.35
2019-03-08T05:42:24.014Z,1002.42
2019-03-08T05:43:24.027Z,1002.45
2019-03-08T05:44:23.992Z,1002.48
2019-03-08T05:45:23.979Z,1002.50
2019-03-08T05:46:23.975Z,1002.50
2019-03-08T05:47:23.990Z,1002.50
2019-03-08T05:48:23.949Z,1002.52
2019-03-08T05:49:23.938Z,1002.57
2019-03-08T05:50:23.939Z,1002.59
2019-03-08T05:51:23.921Z,1002.60
2019-03-08T05:52:23.928Z,1002.58
2019-03-08T05:53:23.920Z,1002.66
2019-03-08T05:54:23.886Z,1002.68
2019-03-08T05:55:23.885Z,1002.73
2019-03-08T05:56:23.865Z,1002.74
2019-03-08T05:57:23.858Z,1002.77
2019-03-08T05:58:23.869Z,1002.85
2019-03-08T05:59:23.849Z,1002.88
2019-03-08T06:00:31.576Z,1002.88
2019-03-08T06:02:34.558Z,1002.90
2019-03-08T06:03:34.528Z,1002.81
2019-03-08T06:04:34.518Z,1002.83
2019-03-08T06:05:34.507Z,1002.86
2019-03-08T06:06:34.514Z,1002.86
2019-03-08T06:07:34.515Z,1002.90
2019-03-08T06:08:34.489Z,1002.97
2019-03-08T06:09:34.476Z,1002.98
2019-03-08T06:10:34.460Z,1003.00
2019-03-08T06:11:34.462Z,1002.98
2019-03-08T06:12:34.455Z,1003.02
2019-03-08T06:13:34.425Z,1003.06
2019-03-08T06:14:34.416Z,1003.11
2019-03-08T06:15:34.410Z,1003.12
2019-03-08T06:16:34.406Z,1003.13
2019-03-08T06:17:34.407Z,1003.21
2019-03-08T06:18:34.374Z,1003.19
2019-03-08T06:19:34.363Z,1003.18
2019-03-08T06:20:34.363Z,1003.14
2019-03-08T06:21:34.343Z,1003.23
2019-03-08T06:22:34.369Z,1003.25
2019-03-08T06:23:34.342Z,1003.25
2019-03-08T06:24:34.322Z,1003.32
2019-03-08T06:25:34.306Z,1003.42
2019-03-08T06:26:34.298Z,1003.45
2019-03-08T06:27:34.281Z,1003.43
2019-03-08T06:28:34.293Z,1003.44
2019-03-08T06:29:34.276Z,1003.42
2019-03-08T06:30:34.254Z,1003.50
2019-03-08T06:31:34.240Z,1003.54
2019-03-08T06:32:34.228Z,1003.57
2019-03-08T06:33:34.257Z,1003.65
2019-03-08T06:34:34.208Z,1003.67
2019-03-08T06:35:34.208Z,1003.69
2019-03-08T06:36:34.203Z,1003.74
2019-03-08T06:37:34.178Z,1003.75
2019-03-08T06:38:34.187Z,1003.77
2019-03-08T06:39:34.157Z,1003.89
2019-03-08T06:40:34.148Z,1003.86
2019-03-08T06:41:34.151Z,1003.94
2019-03-08T06:42:34.130Z,1003.97
2019-03-08T06:43:34.139Z,1004.00
2019-03-08T06:44:34.110Z,1004.05
2019-03-08T06:45:34.115Z,1004.04
2019-03-08T06:46:34.085Z,1004.06
2019-03-08T06:47:34.081Z,1004.11
2019-03-08T06:48:34.096Z,1004.09
2019-03-08T06:49:34.065Z,1004.16
2019-03-08T06:50:34.043Z,1004.23
2019-03-08T06:51:34.030Z,1004.24
2019-03-08T06:52:34.028Z,1004.29
2019-03-08T06:53:34.035Z,1004.33
2019-03-08T06:54:34.003Z,1004.31
2019-03-08T06:55:33.990Z,1004.40
2019-03-08T06:56:33.981Z,1004.32
2019-03-08T06:57:33.970Z,1004.35
2019-03-08T06:58:33.977Z,1004.40
2019-03-08T06:59:33.949Z,1004.41
2019-03-08T07:00:34.010Z,1004.41
2019-03-08T07:01:33.936Z,1004.43
2019-03-08T07:02:33.918Z,1004.46
2019-03-08T07:03:33.924Z,1004.51
2019-03-08T07:04:33.897Z,1004.52
2019-03-08T07:05:33.886Z,1004.52
2019-03-08T07:06:33.874Z,1004.60
2019-03-08T07:07:33.876Z,1004.59
2019-03-08T07:08:33.879Z,1004.58
2019-03-08T07:09:33.845Z,1004.66
2019-03-08T07:10:33.834Z,1004.69
2019-03-08T07:11:34.762Z,1004.73
2019-03-08T07:12:33.820Z,1004.79
2019-03-08T07:13:33.844Z,1004.84
2019-03-08T07:14:33.795Z,1004.85
2019-03-08T07:15:33.784Z,1004.91
2019-03-08T07:16:33.771Z,1004.91
2019-03-08T07:17:33.767Z,1004.94
2019-03-08T07:18:33.761Z,1004.98
2019-03-08T07:19:40.493Z,1004.95
2019-03-08T07:20:34.740Z,1005.03
2019-03-08T07:21:33.720Z,1005.01
2019-03-08T07:22:33.710Z,1005.07
2019-03-08T07:23:33.703Z,1005.05
2019-03-08T07:24:33.719Z,1005.03
2019-03-08T07:25:33.689Z,1005.09
2019-03-08T07:26:33.667Z,1005.06
2019-03-08T07:27:33.663Z,1005.09
2019-03-08T07:28:33.651Z,1005.18
2019-03-08T07:29:33.840Z,1005.14
2019-03-08T07:30:33.629Z,1005.22
2019-03-08T07:31:33.622Z,1005.26
2019-03-08T07:32:33.609Z,1005.25
2019-03-08T07:33:33.596Z,1005.31
2019-03-08T07:34:33.603Z,1005.32
2019-03-08T07:35:33.591Z,1005.39
2019-03-08T07:36:33.565Z,1005.41
2019-03-08T07:37:33.556Z,1005.43
2019-03-08T07:38:33.546Z,1005.47
2019-03-08T07:39:33.595Z,1005.46
2019-03-08T07:40:33.527Z,1005.51
2019-03-08T07:41:33.526Z,1005.51
2019-03-08T07:42:33.503Z,1005.59
2019-03-08T07:43:33.508Z,1005.57
2019-03-08T07:44:33.501Z,1005.60
2019-03-08T07:45:33.477Z,1005.63
2019-03-08T07:46:33.475Z,1005.67
2019-03-08T07:47:33.455Z,1005.67
2019-03-08T07:48:33.438Z,1005.62
2019-03-08T07:49:33.455Z,1005.68
2019-03-08T07:50:33.417Z,1005.69
2019-03-08T07:51:33.408Z,1005.72
2019-03-08T07:52:33.400Z,1005.74
2019-03-08T07:53:33.390Z,1005.76
2019-03-08T07:54:33.398Z,1005.78
2019-03-08T07:55:33.366Z,1005.81
2019-03-08T07:56:33.355Z,1005.83
2019-03-08T07:57:33.344Z,1005.89
2019-03-08T07:58:33.349Z,1005.92
2019-03-08T07:59:33.344Z,1005.92
2019-03-08T08:00:33.313Z,1005.94
2019-03-08T08:01:33.307Z,1006.01
2019-03-08T08:02:33.296Z,1005.97
2019-03-08T08:03:33.284Z,1006.01
2019-03-08T08:04:33.296Z,1006.03
2019-03-08T08:05:33.275Z,1006.06
2019-03-08T08:06:33.260Z,1006.09
2019-03-08T08:07:33.255Z,1006.08
2019-03-08T08:08:33.231Z,1006.12
2019-03-08T08:09:33.244Z,1006.14
2019-03-08T08:10:33.212Z,1006.19
2019-03-08T08:11:33.211Z,1006.27
2019-03-08T08:12:33.190Z,1006.30
2019-03-08T08:13:33.183Z,1006.30
2019-03-08T08:14:39.617Z,1006.36
2019-03-08T08:15:34.158Z,1006.34
2019-03-08T08:16:33.148Z,1006.38
2019-03-08T08:17:33.144Z,1006.38
2019-03-08T08:18:33.143Z,1006.42
2019-03-08T08:19:33.136Z,1006.40
2019-03-08T08:20:33.106Z,1006.45
2019-03-08T08:21:33.095Z,1006.47
2019-03-08T08:22:33.085Z,1006.52
2019-03-08T08:23:34.833Z,1006.44
2019-03-08T08:24:33.088Z,1006.48
2019-03-08T08:25:36.727Z,1006.43
2019-03-08T08:26:33.064Z,1006.50
2019-03-08T08:27:33.032Z,1006.53
2019-03-08T08:28:33.022Z,1006.55
2019-03-08T08:29:35.256Z,1006.54
2019-03-08T08:30:33.000Z,1006.51
2019-03-08T08:31:32.996Z,1006.61
2019-03-08T08:32:32.998Z,1006.62
2019-03-08T08:33:32.971Z,1006.68
2019-03-08T08:34:32.957Z,1006.65
2019-03-08T08:35:32.968Z,1006.67
2019-03-08T08:36:32.956Z,1006.66
2019-03-08T08:37:32.928Z,1006.65
2019-03-08T08:38:32.912Z,1006.74
2019-03-08T08:39:32.909Z,1006.79
2019-03-08T08:40:32.911Z,1006.74
2019-03-08T08:41:32.878Z,1006.80
2019-03-08T08:42:32.869Z,1006.80
2019-03-08T08:43:32.862Z,1006.83
2019-03-08T08:44:32.849Z,1006.87
2019-03-08T08:45:32.855Z,1006.87
2019-03-08T08:46:32.825Z,1006.85
2019-03-08T08:47:32.818Z,1006.89
2019-03-08T08:48:32.810Z,1006.93
2019-03-08T08:49:32.804Z,1006.93
2019-03-08T08:50:32.827Z,1006.91
2019-03-08T08:51:32.770Z,1006.92
2019-03-08T08:52:32.759Z,1006.91
2019-03-08T08:53:32.748Z,1006.93
2019-03-08T08:54:32.744Z,1006.97
2019-03-08T08:55:32.754Z,1007.08
2019-03-08T08:56:32.715Z,1007.06
2019-03-08T08:57:32.707Z,1007.06
2019-03-08T08:58:32.700Z,1007.13
2019-03-08T08:59:32.682Z,1007.11
2019-03-08T09:00:32.704Z,1007.14
2019-03-08T09:01:32.680Z,1007.10
2019-03-08T09:02:32.651Z,1007.10
2019-03-08T09:03:32.639Z,1007.15
2019-03-08T09:04:32.634Z,1007.26
2019-03-08T09:05:32.655Z,1007.21
2019-03-08T09:06:32.609Z,1007.20
2019-03-08T09:07:32.598Z,1007.25
2019-03-08T09:08:32.590Z,1007.23
2019-03-08T09:09:32.577Z,1007.28
2019-03-08T09:10:32.601Z,1007.38
2019-03-08T09:11:32.559Z,1007.26
2019-03-08T09:12:32.542Z,1007.17
2019-03-08T09:13:32.550Z,1007.18
2019-03-08T09:14:32.521Z,1007.33
2019-03-08T09:15:32.557Z,1007.37
2019-03-08T09:16:32.497Z,1007.38
2019-03-08T09:17:32.503Z,1007.38
2019-03-08T09:18:32.492Z,1007.45
2019-03-08T09:19:32.461Z,1007.50
2019-03-08T09:20:32.488Z,1007.49
2019-03-08T09:21:32.440Z,1007.51
2019-03-08T09:22:32.426Z,1007.51
2019-03-08T09:23:32.442Z,1007.51
2019-03-08T09:24:32.414Z,1007.56
2019-03-08T09:25:32.431Z,1007.54
2019-03-08T09:26:33.123Z,1007.51
2019-03-08T09:27:32.371Z,1007.59
2019-03-08T09:28:32.364Z,1007.64
2019-03-08T09:29:40.863Z,1007.64
2019-03-08T09:30:33.354Z,1007.60
2019-03-08T09:31:32.326Z,1007.59
2019-03-08T09:32:32.314Z,1007.65
2019-03-08T09:33:32.306Z,1007.65
2019-03-08T09:34:32.330Z,1007.68
2019-03-08T09:35:32.322Z,1007.70
2019-03-08T09:36:32.281Z,1007.71
2019-03-08T09:37:32.257Z,1007.71
2019-03-08T09:38:32.251Z,1007.72
2019-03-08T09:39:32.235Z,1007.68
2019-03-08T09:40:32.243Z,1007.72
2019-03-08T09:41:32.226Z,1007.78
2019-03-08T09:42:32.201Z,1007.70
2019-03-08T09:43:32.191Z,1007.83
2019-03-08T09:44:32.177Z,1007.81
2019-03-08T09:45:32.189Z,1007.77
2019-03-08T09:46:32.156Z,1007.87
2019-03-08T09:47:32.161Z,1007.86
2019-03-08T09:48:32.156Z,1007.93
2019-03-08T09:49:32.123Z,1007.96
2019-03-08T09:50:32.131Z,1007.95
2019-03-08T09:51:32.105Z,1008.06
2019-03-08T09:52:32.568Z,1008.06
2019-03-08T09:53:32.088Z,1008.09
2019-03-08T09:54:32.069Z,1008.08
2019-03-08T09:55:32.207Z,1008.06
2019-03-08T09:56:32.047Z,1008.02
2019-03-08T09:57:32.034Z,1008.03
2019-03-08T09:58:32.029Z,1008.08
2019-03-08T09:59:32.012Z,1008.10
2019-03-08T10:00:32.005Z,1008.13
2019-03-08T10:01:32.013Z,1008.10
2019-03-08T10:02:31.989Z,1008.14
2019-03-08T10:03:31.970Z,1008.11
2019-03-08T10:04:31.958Z,1008.09
2019-03-08T10:05:31.951Z,1008.32
2019-03-08T10:06:31.957Z,1008.14
2019-03-08T10:07:31.925Z,1008.05
2019-03-08T10:08:31.912Z,1008.19
2019-03-08T10:09:31.933Z,1008.17
2019-03-08T10:10:31.900Z,1008.15
2019-03-08T10:11:31.898Z,1008.09
2019-03-08T10:12:31.867Z,1008.15
2019-03-08T10:13:31.862Z,1008.18
2019-03-08T10:14:31.845Z,1008.18
2019-03-08T10:15:31.851Z,1008.28
2019-03-08T10:16:31.849Z,1008.24
2019-03-08T10:17:31.810Z,1008.28
2019-03-08T10:18:31.806Z,1008.24
2019-03-08T10:19:31.791Z,1008.25
2019-03-08T10:20:31.780Z,1008.29
2019-03-08T10:21:31.804Z,1008.41
2019-03-08T10:22:31.780Z,1008.65
2019-03-08T10:23:31.989Z,1008.40
2019-03-08T10:24:31.734Z,1008.33
2019-03-08T10:25:31.722Z,1008.35
2019-03-08T10:26:31.730Z,1008.41
2019-03-08T10:27:38.114Z,1008.42
2019-03-08T10:28:32.687Z,1008.42
2019-03-08T10:29:31.687Z,1008.50
2019-03-08T10:30:32.037Z,1008.47
2019-03-08T10:31:31.676Z,1008.49
2019-03-08T10:32:37.340Z,1008.55
2019-03-08T10:33:32.635Z,1008.56
2019-03-08T10:34:31.621Z,1008.58
2019-03-08T10:35:31.618Z,1008.59
2019-03-08T10:36:31.617Z,1008.63
2019-03-08T10:37:31.588Z,1008.64
2019-03-08T10:38:31.593Z,1008.66
2019-03-08T10:39:31.566Z,1008.65
2019-03-08T10:40:31.555Z,1008.95
2019-03-08T10:41:31.581Z,1009.03
2019-03-08T10:42:31.534Z,1008.59
2019-03-08T10:43:31.521Z,1008.95
2019-03-08T10:44:31.511Z,1008.77
2019-03-08T10:45:31.505Z,1008.74
2019-03-08T10:46:31.511Z,1008.73
2019-03-08T10:47:31.483Z,1008.81
2019-03-08T10:48:31.468Z,1008.82
2019-03-08T10:49:31.455Z,1008.78
2019-03-08T10:50:31.452Z,1008.86
2019-03-08T10:51:31.457Z,1008.88
2019-03-08T10:52:31.433Z,1008.95
2019-03-08T10:53:31.424Z,1008.87
2019-03-08T10:54:31.403Z,1008.94
2019-03-08T10:55:31.406Z,1008.94
2019-03-08T10:56:31.412Z,1008.93
2019-03-08T10:57:31.388Z,1008.87
2019-03-08T10:58:31.372Z,1009.03
2019-03-08T10:59:31.525Z,1009.06
2019-03-08T11:00:31.334Z,1009.04
2019-03-08T11:01:31.343Z,1008.96
2019-03-08T11:02:31.317Z,1009.06
2019-03-08T11:03:31.313Z,1009.01
2019-03-08T11:04:31.295Z,1009.05
2019-03-08T11:05:31.327Z,1009.09
2019-03-08T11:06:31.288Z,1009.13
2019-03-08T11:07:31.263Z,1009.14
2019-03-08T11:08:31.248Z,1009.00
2019-03-08T11:09:31.238Z,1009.10
2019-03-08T11:10:31.235Z,1009.14
2019-03-08T11:11:31.237Z,1009.17
2019-03-08T11:12:31.220Z,1009.17
2019-03-08T11:13:31.194Z,1009.19
2019-03-08T11:14:31.187Z,1009.39
2019-03-08T11:15:31.184Z,1009.23
2019-03-08T11:16:31.194Z,1009.18
2019-03-08T11:17:31.153Z,1009.43
2019-03-08T11:18:31.148Z,1009.60
2019-03-08T11:19:31.155Z,1009.22
2019-03-08T11:20:31.119Z,1009.15
2019-03-08T11:21:31.281Z,1009.17
2019-03-08T11:22:31.095Z,1009.26
2019-03-08T11:23:31.085Z,1009.21
2019-03-08T11:24:31.080Z,1009.22
2019-03-08T11:25:34.928Z,1009.19
2019-03-08T11:26:31.074Z,1009.29
2019-03-08T11:27:31.040Z,1009.27
2019-03-08T11:28:31.028Z,1009.28
2019-03-08T11:29:31.020Z,1009.27
2019-03-08T11:30:31.007Z,1009.31
2019-03-08T11:31:31.058Z,1009.33
2019-03-08T11:32:30.994Z,1009.34
2019-03-08T11:33:30.975Z,1009.34
2019-03-08T11:34:30.965Z,1009.38
2019-03-08T11:35:30.953Z,1009.33
2019-03-08T11:36:30.942Z,1009.27
2019-03-08T11:37:30.957Z,1009.28
2019-03-08T11:38:30.952Z,1009.37
2019-03-08T11:39:30.911Z,1009.46
2019-03-08T11:40:30.898Z,1009.40
2019-03-08T11:41:30.898Z,1009.63
2019-03-08T11:42:30.894Z,1009.39
2019-03-08T11:43:30.866Z,1009.35
2019-03-08T11:44:30.885Z,1009.41
2019-03-08T11:45:30.842Z,1009.38
2019-03-08T11:46:30.832Z,1009.35
2019-03-08T11:47:30.839Z,1009.42
2019-03-08T11:48:30.815Z,1009.46
2019-03-08T11:49:30.799Z,1009.41
2019-03-08T11:50:30.810Z,1009.45
2019-03-08T11:51:30.778Z,1009.46
2019-03-08T11:52:30.785Z,1009.49
2019-03-08T11:53:30.757Z,1009.63
2019-03-08T11:54:30.743Z,1009.56
2019-03-08T11:55:30.731Z,1009.63
2019-03-08T11:56:30.735Z,1009.61
2019-03-08T11:57:30.730Z,1009.70
2019-03-08T11:58:30.701Z,1009.69
2019-03-08T11:59:30.686Z,1009.78
2019-03-08T12:00:30.677Z,1009.77
2019-03-08T12:01:30.692Z,1009.83
2019-03-08T12:02:37.545Z,1009.84
2019-03-08T12:03:31.647Z,1009.87
2019-03-08T12:04:30.631Z,1009.92
2019-03-08T12:05:30.621Z,1009.90
2019-03-08T12:06:30.608Z,1009.87
2019-03-08T12:07:30.615Z,1009.84
2019-03-08T12:08:30.588Z,1009.85
2019-03-08T12:09:30.595Z,1009.86
2019-03-08T12:10:30.565Z,1009.86
2019-03-08T12:11:30.552Z,1009.91
2019-03-08T12:12:30.558Z,1009.84
2019-03-08T12:13:32.254Z,1009.85
2019-03-08T12:14:30.518Z,1009.83
2019-03-08T12:15:30.516Z,1009.86
2019-03-08T12:16:30.510Z,1009.84
2019-03-08T12:17:30.505Z,1009.81
2019-03-08T12:18:30.472Z,1009.79
2019-03-08T12:19:30.463Z,1009.77
2019-03-08T12:20:30.449Z,1009.78
2019-03-08T12:21:30.442Z,1009.77
2019-03-08T12:22:30.462Z,1009.78
2019-03-08T12:23:30.445Z,1009.76
2019-03-08T12:24:30.404Z,1009.70
2019-03-08T12:25:30.399Z,1010.02
2019-03-08T12:26:30.381Z,1009.88
2019-03-08T12:27:30.411Z,1009.92
2019-03-08T12:28:30.367Z,1009.78
2019-03-08T12:29:30.352Z,1009.95
2019-03-08T12:30:30.346Z,1010.00
2019-03-08T12:31:30.329Z,1009.90
2019-03-08T12:32:30.338Z,1009.80
2019-03-08T12:33:30.306Z,1009.86
2019-03-08T12:34:30.300Z,1009.77
2019-03-08T12:35:30.288Z,1009.73
2019-03-08T12:36:30.287Z,1009.45
2019-03-08T12:37:30.293Z,1009.45
2019-03-08T12:38:30.251Z,1009.44
2019-03-08T12:39:30.249Z,1009.51
2019-03-08T12:40:30.235Z,1009.47
2019-03-08T12:41:30.229Z,1009.53
2019-03-08T12:42:30.232Z,1009.54
2019-03-08T12:43:30.199Z,1009.53
2019-03-08T12:44:30.206Z,1009.50
2019-03-08T12:45:30.180Z,1009.52
2019-03-08T12:46:30.167Z,1009.53
2019-03-08T12:47:30.175Z,1009.57
2019-03-08T12:48:30.147Z,1009.53
2019-03-08T12:49:30.135Z,1009.60
2019-03-08T12:50:30.129Z,1009.65
2019-03-08T12:51:30.111Z,1009.64
2019-03-08T12:52:30.123Z,1009.62
2019-03-08T12:53:30.096Z,1009.61
2019-03-08T12:54:30.078Z,1009.67
2019-03-08T12:55:30.069Z,1009.66
2019-03-08T12:56:30.059Z,1009.66
2019-03-08T12:57:30.083Z,1009.67
2019-03-08T12:58:30.059Z,1009.65
2019-03-08T12:59:30.031Z,1009.68
2019-03-08T13:00:30.024Z,1009.68
2019-03-08T13:01:30.007Z,1009.68
2019-03-08T13:02:30.015Z,1009.61
2019-03-08T13:03:29.990Z,1009.61
2019-03-08T13:04:29.971Z,1009.68
2019-03-08T13:05:29.969Z,1009.69
2019-03-08T13:06:29.947Z,1009.63
2019-03-08T13:07:29.957Z,1009.78
2019-03-08T13:08:29.931Z,1009.66
2019-03-08T13:09:29.925Z,1009.61
2019-03-08T13:10:29.912Z,1009.67
2019-03-08T13:11:33.378Z,1009.65
2019-03-08T13:12:29.881Z,1009.58
2019-03-08T13:13:29.893Z,1009.56
2019-03-08T13:14:29.865Z,1009.59
2019-03-08T13:15:29.861Z,1009.54
2019-03-08T13:16:29.840Z,1009.54
2019-03-08T13:17:29.827Z,1009.63
2019-03-08T13:18:29.840Z,1009.61
2019-03-08T13:19:29.808Z,1009.59
2019-03-08T13:20:29.807Z,1009.58
2019-03-08T13:21:29.785Z,1009.59
2019-03-08T13:22:29.772Z,1009.58
2019-03-08T13:23:29.781Z,1009.59
2019-03-08T13:24:29.751Z,1009.62
2019-03-08T13:25:29.738Z,1009.60
2019-03-08T13:26:29.743Z,1009.61
2019-03-08T13:27:29.716Z,1009.59
2019-03-08T13:28:29.727Z,1009.57
2019-03-08T13:29:29.697Z,1009.57
2019-03-08T13:30:29.684Z,1009.60
2019-03-08T13:31:29.673Z,1009.56
2019-03-08T13:32:29.670Z,1009.57
2019-03-08T13:33:29.670Z,1009.53
2019-03-08T13:34:29.642Z,1009.58
2019-03-08T13:35:29.626Z,1009.53
2019-03-08T13:36:29.622Z,1009.59
2019-03-08T13:37:29.605Z,1009.57
2019-03-08T13:38:29.636Z,1009.59
2019-03-08T13:39:29.587Z,1009.57
2019-03-08T13:40:29.578Z,1009.64
2019-03-08T13:41:29.559Z,1009.62
2019-03-08T13:42:29.548Z,1009.65
2019-03-08T13:43:29.564Z,1009.60
2019-03-08T13:44:29.548Z,1009.64
2019-03-08T13:45:29.522Z,1009.58
2019-03-08T13:46:29.504Z,1009.71
2019-03-08T13:47:29.492Z,1009.73
2019-03-08T13:48:29.504Z,1009.73
2019-03-08T13:49:29.475Z,1009.73
2019-03-08T13:50:29.462Z,1009.71
2019-03-08T13:51:29.459Z,1009.73
2019-03-08T13:52:29.451Z,1009.69
2019-03-08T13:53:29.454Z,1009.71
2019-03-08T13:54:29.416Z,1009.70
2019-03-08T13:55:29.407Z,1009.74
2019-03-08T13:56:29.391Z,1009.73
2019-03-08T13:57:29.390Z,1009.71
2019-03-08T13:58:29.394Z,1009.74
2019-03-08T13:59:29.357Z,1009.75
2019-03-08T14:00:29.345Z,1009.78
2019-03-08T14:01:29.360Z,1009.81
2019-03-08T14:02:29.323Z,1009.80
2019-03-08T14:03:29.330Z,1009.76
2019-03-08T14:04:29.333Z,1009.75
2019-03-08T14:05:29.291Z,1009.77
2019-03-08T14:06:29.277Z,1009.68
2019-03-08T14:07:29.265Z,1009.73
2019-03-08T14:08:29.279Z,1009.80
2019-03-08T14:09:29.242Z,1009.69
2019-03-08T14:10:29.241Z,1009.74
2019-03-08T14:11:29.223Z,1009.76
2019-03-08T14:12:29.210Z,1009.75
2019-03-08T14:13:29.217Z,1009.76
2019-03-08T14:14:29.189Z,1009.77
2019-03-08T14:15:29.186Z,1009.75
2019-03-08T14:16:29.173Z,1009.79
2019-03-08T14:17:29.155Z,1009.73
2019-03-08T14:18:29.171Z,1009.70
2019-03-08T14:19:29.133Z,1009.72
2019-03-08T14:20:29.123Z,1009.74
2019-03-08T14:21:29.110Z,1009.71
2019-03-08T14:22:30.591Z,1009.71
2019-03-08T14:23:29.109Z,1009.69
2019-03-08T14:24:29.082Z,1009.68
2019-03-08T14:25:29.070Z,1009.65
2019-03-08T14:26:29.052Z,1009.63
2019-03-08T14:27:29.039Z,1009.60
2019-03-08T14:28:29.054Z,1009.63
2019-03-08T14:29:29.017Z,1009.65
2019-03-08T14:30:32.210Z,1009.65
2019-03-08T14:31:30.005Z,1009.65
2019-03-08T14:32:28.982Z,1009.66
2019-03-08T14:33:28.995Z,1009.65
2019-03-08T14:34:28.966Z,1009.62
2019-03-08T14:35:29.684Z,1009.62
2019-03-08T14:36:28.937Z,1009.62
2019-03-08T14:37:28.940Z,1009.64
2019-03-08T14:38:31.406Z,1009.61
2019-03-08T14:39:28.903Z,1009.62
2019-03-08T14:40:28.893Z,1009.65
2019-03-08T14:41:30.765Z,1009.58
2019-03-08T14:42:28.873Z,1009.61
2019-03-08T14:43:28.884Z,1009.65
2019-03-08T14:44:29.951Z,1009.66
2019-03-08T14:45:28.834Z,1009.68
2019-03-08T14:46:28.825Z,1009.69
2019-03-08T14:47:29.408Z,1009.75
2019-03-08T14:48:28.832Z,1009.63
2019-03-08T14:49:28.791Z,1009.71
2019-03-08T14:50:31.877Z,1009.64
2019-03-08T14:51:29.770Z,1009.66
2019-03-08T14:52:28.761Z,1009.65
2019-03-08T14:53:32.914Z,1009.64
2019-03-08T14:54:29.763Z,1009.60
2019-03-08T14:55:28.731Z,1009.60
2019-03-08T14:56:31.908Z,1009.62
2019-03-08T14:57:29.698Z,1009.65
2019-03-08T14:58:32.597Z,1009.60
2019-03-08T14:59:29.718Z,1009.63
2019-03-08T15:00:29.340Z,1009.59
2019-03-08T15:01:28.669Z,1009.61
2019-03-08T15:02:28.641Z,1009.61
2019-03-08T15:03:28.637Z,1009.63
2019-03-08T15:04:29.449Z,1009.59
2019-03-08T15:05:28.609Z,1009.62
2019-03-08T15:06:29.600Z,1009.57
2019-03-08T15:07:28.606Z,1009.60
2019-03-08T15:08:28.577Z,1009.58
2019-03-08T15:09:29.381Z,1009.62
2019-03-08T15:10:28.553Z,1009.53
2019-03-08T15:11:28.552Z,1009.54
2019-03-08T15:12:28.548Z,1009.51
2019-03-08T15:13:28.537Z,1009.47
2019-03-08T15:14:30.227Z,1009.45
2019-03-08T15:15:28.495Z,1009.52
2019-03-08T15:16:28.489Z,1009.43
2019-03-08T15:17:29.131Z,1009.49
2019-03-08T15:18:29.491Z,1009.45
2019-03-08T15:19:28.486Z,1009.45
2019-03-08T15:20:28.436Z,1009.47
2019-03-08T15:21:28.429Z,1009.51
2019-03-08T15:22:28.424Z,1009.58
2019-03-08T15:23:28.407Z,1009.56
2019-03-08T15:24:37.913Z,1009.55
2019-03-08T15:25:31.372Z,1009.62
2019-03-08T15:26:28.369Z,1009.60
2019-03-08T15:27:28.366Z,1009.66
2019-03-08T15:28:28.349Z,1009.73
2019-03-08T15:29:28.356Z,1009.67
2019-03-08T15:30:28.325Z,1009.68
2019-03-08T15:31:28.315Z,1009.71
2019-03-08T15:32:28.305Z,1009.71
2019-03-08T15:33:28.290Z,1009.72
2019-03-08T15:34:28.299Z,1009.75
2019-03-08T15:35:28.271Z,1009.73
2019-03-08T15:36:28.260Z,1009.73
2019-03-08T15:37:28.253Z,1009.70
2019-03-08T15:38:28.235Z,1009.73
2019-03-08T15:39:28.248Z,1009.73
2019-03-08T15:40:28.230Z,1009.69
2019-03-08T15:41:28.217Z,1009.69
2019-03-08T15:42:28.191Z,1009.69
2019-03-08T15:43:28.182Z,1009.72
2019-03-08T15:44:29.210Z,1009.65
2019-03-08T15:45:28.160Z,1009.67
2019-03-08T15:46:28.148Z,1009.69
2019-03-08T15:47:28.146Z,1009.69
2019-03-08T15:48:28.122Z,1009.63
2019-03-08T15:49:30.652Z,1009.70
2019-03-08T15:50:28.102Z,1009.67
2019-03-08T15:51:28.094Z,1009.71
2019-03-08T15:52:28.106Z,1009.74
2019-03-08T15:53:28.066Z,1009.71
2019-03-08T15:54:28.086Z,1009.75
2019-03-08T15:55:28.580Z,1009.75
2019-03-08T15:56:28.031Z,1009.71
2019-03-08T15:57:28.023Z,1009.70
2019-03-08T15:58:28.010Z,1009.68
2019-03-08T15:59:28.025Z,1009.69
2019-03-08T16:00:27.987Z,1009.67
2019-03-08T16:01:27.978Z,1009.64
2019-03-08T16:02:27.966Z,1009.75
2019-03-08T16:03:30.201Z,1009.70
2019-03-08T16:04:28.968Z,1009.76
2019-03-08T16:05:29.734Z,1009.75
2019-03-08T16:06:27.919Z,1009.81
2019-03-08T16:07:27.915Z,1009.76
2019-03-08T16:08:27.897Z,1009.75
2019-03-08T16:09:27.931Z,1009.80
2019-03-08T16:10:27.880Z,1009.83
2019-03-08T16:11:27.876Z,1009.83
2019-03-08T16:12:27.853Z,1009.82
2019-03-08T16:13:27.840Z,1009.78
2019-03-08T16:14:27.840Z,1009.81
2019-03-08T16:15:27.841Z,1009.84
2019-03-08T16:16:27.807Z,1009.83
2019-03-08T16:17:27.795Z,1009.81
2019-03-08T16:18:27.789Z,1009.75
2019-03-08T16:19:27.773Z,1009.75
2019-03-08T16:20:27.786Z,1009.78
2019-03-08T16:21:27.755Z,1009.71
2019-03-08T16:22:28.562Z,1009.71
2019-03-08T16:23:27.728Z,1009.76
2019-03-08T16:24:31.005Z,1009.73
2019-03-08T16:25:27.730Z,1009.68
2019-03-08T16:26:27.707Z,1009.64
2019-03-08T16:27:27.687Z,1009.69
2019-03-08T16:28:27.680Z,1009.69
2019-03-08T16:29:27.662Z,1009.71
2019-03-08T16:30:27.670Z,1009.71
2019-03-08T16:31:27.638Z,1009.69
2019-03-08T16:32:27.636Z,1009.72
2019-03-08T16:33:27.627Z,1009.69
2019-03-08T16:34:27.615Z,1009.69
2019-03-08T16:35:27.612Z,1009.68
2019-03-08T16:36:27.583Z,1009.68
2019-03-08T16:37:27.576Z,1009.73
2019-03-08T16:38:27.560Z,1009.72
2019-03-08T16:39:27.548Z,1009.70
2019-03-08T16:40:27.568Z,1009.74
2019-03-08T16:41:27.528Z,1009.68
2019-03-08T16:42:27.521Z,1009.70
2019-03-08T16:43:27.505Z,1009.68
2019-03-08T16:44:27.493Z,1009.67
2019-03-08T16:45:27.510Z,1009.67
2019-03-08T16:46:27.483Z,1009.66
2019-03-08T16:47:27.463Z,1009.65
2019-03-08T16:48:27.451Z,1009.66
2019-03-08T16:49:27.444Z,1009.66
2019-03-08T16:50:27.446Z,1009.68
2019-03-08T16:51:30.289Z,1009.67
2019-03-08T16:52:28.405Z,1009.63
2019-03-08T16:53:27.401Z,1009.66
2019-03-08T16:54:27.386Z,1009.55
2019-03-08T16:55:27.388Z,1009.68
2019-03-08T16:56:27.361Z,1009.65
2019-03-08T16:57:27.348Z,1009.59
2019-03-08T16:58:27.337Z,1009.60
2019-03-08T16:59:27.331Z,1009.63
2019-03-08T17:00:27.337Z,1009.63
2019-03-08T17:01:27.327Z,1009.55
2019-03-08T17:02:27.298Z,1009.57
2019-03-08T17:03:27.280Z,1009.59
2019-03-08T17:04:27.270Z,1009.50
2019-03-08T17:05:27.280Z,1009.52
2019-03-08T17:06:29.363Z,1009.48
2019-03-08T17:07:27.237Z,1009.51
2019-03-08T17:08:27.236Z,1009.47
2019-03-08T17:09:27.221Z,1009.49
2019-03-08T17:10:27.221Z,1009.52
2019-03-08T17:11:27.193Z,1009.51
2019-03-08T17:12:27.182Z,1009.51
2019-03-08T17:13:27.173Z,1009.56
2019-03-08T17:14:27.159Z,1009.56
2019-03-08T17:15:27.181Z,1009.63
2019-03-08T17:16:27.139Z,1009.61
2019-03-08T17:17:27.132Z,1009.62
2019-03-08T17:18:27.118Z,1009.64
2019-03-08T17:19:27.107Z,1009.68
2019-03-08T17:20:27.111Z,1009.62
2019-03-08T17:21:27.084Z,1009.63
2019-03-08T17:22:27.071Z,1009.64
2019-03-08T17:23:27.061Z,1009.69
2019-03-08T17:24:27.066Z,1009.73
2019-03-08T17:25:27.058Z,1009.71
2019-03-08T17:26:27.071Z,1009.75
2019-03-08T17:27:27.057Z,1009.80
2019-03-08T17:28:27.012Z,1009.76
2019-03-08T17:29:26.999Z,1009.80
2019-03-08T17:30:27.005Z,1009.81
2019-03-08T17:31:26.976Z,1009.81
2019-03-08T17:32:26.965Z,1009.85
2019-03-08T17:33:26.948Z,1009.84
2019-03-08T17:34:26.945Z,1009.86
2019-03-08T17:35:27.061Z,1009.89
2019-03-08T17:36:26.916Z,1009.88
2019-03-08T17:37:26.911Z,1009.85
2019-03-08T17:38:26.901Z,1009.84
2019-03-08T17:39:26.882Z,1009.89
2019-03-08T17:40:28.043Z,1009.91
2019-03-08T17:41:26.863Z,1009.87
2019-03-08T17:42:26.855Z,1009.91